Belle River, Canada
Current Conditions -  °F | °C
As of 9:00 AM on Monday 20 Oct 2014 (Local Time) from CYQG Reporting Station
Broken Clouds Broken Clouds  
Wind Chill: 44°   Ceiling: 7200
Heat Index: 48°   Visibility: 8mi
Dew Point: 45°   Wind: 9mph
Humidity: 87%   Direction: 210°SSW
Pressure: 29.87"   Gusts: NA
Location:  42.3°N, 82.72°W
Report Text: CYQG 201300Z 21008KT 8SM SCT048 BKN072 09/07 A2987 RMK SC4AC3 SLP117
Loading
Personal Weather Stations






























Interactive Weather Map
Tropical Storm Tracking
New forecast layout! Learn more

10-Day Weather Forecast

Advertisements
Track Severe Weather on mobile